Time;durP1;ratioP1;P1;durP2;ratioP2;P2;SDS_P1;SDS_P2;PMS_P1;PMS_P2;Temp;Humidity;BMP_temperature;BMP_pressure;BME280_temperature;BME280_humidity;BME280_pressure;Samples;Min_cycle;Max_cycle;Signal;HPM_P1;HPM_P2
2023/05/18 01:54:48;;;;;;;14.52;2.30;;;;;;;16.17;70.00;100103.06;5113870;28;20521;-85
2023/05/18 01:57:17;;;;;;;6.03;2.28;;;;;;;16.24;69.20;100105.91;5078034;28;20048;-85
2023/05/18 02:03:14;;;;;;;25.05;4.63;;;;;;;16.41;69.75;100150.13;5114778;28;20387;-85
2023/05/18 02:05:40;;;;;;;11.02;2.85;;;;;;;16.45;69.48;100154.19;5115628;28;20031;-85
2023/05/18 02:08:05;;;;;;;22.67;2.47;;;;;;;16.29;69.37;100127.94;5113255;28;20398;-85
2023/05/18 02:10:32;;;;;;;9.32;2.88;;;;;;;16.28;69.83;100137.09;5113176;28;20036;-85
2023/05/18 02:12:57;;;;;;;10.73;3.00;;;;;;;16.28;69.65;100146.09;5112534;28;20067;-85
2023/05/18 02:15:25;;;;;;;8.00;2.72;;;;;;;16.31;69.68;100134.91;5113047;28;20071;-85
2023/05/18 02:18:09;;;;;;;16.02;3.78;;;;;;;16.46;69.27;100167.59;5112825;28;20513;-85
2023/05/18 02:20:36;;;;;;;12.35;2.70;;;;;;;16.22;69.78;100144.06;5113099;28;20402;-86
2023/05/18 02:23:02;;;;;;;15.70;3.22;;;;;;;16.21;70.16;100158.66;5112190;28;20059;-85
2023/05/18 02:26:17;;;;;;;35.90;3.97;;;;;;;16.41;70.23;100191.69;5116106;28;20039;-84
2023/05/18 02:28:43;;;;;;;11.98;2.47;;;;;;;16.23;70.25;100172.91;5116990;28;20047;-84
2023/05/18 02:31:10;;;;;;;8.32;2.75;;;;;;;16.16;70.20;100152.06;5116925;28;20035;-86
2023/05/18 02:33:49;;;;;;;13.65;2.80;;;;;;;16.23;70.15;100172.06;5117755;28;20042;-84
2023/05/18 02:36:17;;;;;;;5.65;2.00;;;;;;;16.31;70.21;100191.03;5117659;28;20036;-86
2023/05/18 02:38:45;;;;;;;12.90;3.45;;;;;;;16.03;70.48;100168.84;5118738;28;20028;-84
2023/05/18 02:41:11;;;;;;;5.57;2.53;;;;;;;16.33;70.42;100210.69;5138032;27;20026;-83
2023/05/18 02:43:36;;;;;;;23.48;3.22;;;;;;;16.11;70.34;100181.56;5134141;28;20091;-85
2023/05/18 02:46:07;;;;;;;7.93;2.88;;;;;;;16.19;70.69;100206.81;5117991;28;20039;-85
2023/05/18 02:48:33;;;;;;;8.95;2.75;;;;;;;16.03;70.79;100177.00;5117633;28;20106;-85
2023/05/18 02:50:59;;;;;;;5.85;2.80;;;;;;;16.03;71.10;100178.84;5119386;28;20066;-87
2023/05/18 02:53:25;;;;;;;5.22;2.10;;;;;;;16.17;71.03;100211.59;5099330;28;20058;-85
2023/05/18 02:55:57;;;;;;;6.15;2.47;;;;;;;16.25;71.08;100227.84;5116958;28;20039;-85
2023/05/18 02:58:33;;;;;;;11.05;2.70;;;;;;;16.03;71.30;100195.97;5116945;28;20027;-85
2023/05/18 03:01:02;;;;;;;13.95;3.45;;;;;;;15.96;71.45;100203.09;5100054;28;20039;-86
2023/05/18 03:03:28;;;;;;;15.70;4.95;;;;;;;15.90;71.61;100192.91;5103302;28;20066;-83
2023/05/18 03:06:08;;;;;;;17.17;5.43;;;;;;;16.13;72.14;100222.94;5123042;28;20055;-84
2023/05/18 03:08:35;;;;;;;11.65;4.03;;;;;;;15.99;71.47;100200.03;5125214;28;20031;-87
2023/05/18 03:11:01;;;;;;;5.90;2.75;;;;;;;16.10;71.29;100216.00;5128843;28;20042;-84
2023/05/18 03:14:02;;;;;;;12.85;3.25;;;;;;;16.35;71.24;100252.09;5127715;27;20107;-85
2023/05/18 03:16:28;;;;;;;13.73;3.60;;;;;;;16.09;71.35;100203.44;5124105;28;20050;-86
2023/05/18 03:18:54;;;;;;;10.02;3.03;;;;;;;16.16;71.39;100211.75;5130720;28;20024;-86
2023/05/18 03:21:34;;;;;;;23.27;4.72;;;;;;;16.15;71.29;100204.59;5130777;28;20039;-86
2023/05/18 03:24:00;;;;;;;11.07;3.45;;;;;;;16.19;71.07;100217.69;5121723;28;20035;-85
2023/05/18 03:26:29;;;;;;;10.45;3.03;;;;;;;16.23;71.11;100207.34;5125835;28;20084;-85
2023/05/18 03:32:21;;;;;;;18.83;2.97;;;;;;;16.27;71.06;100209.53;5121135;28;20040;-84
2023/05/18 03:34:50;;;;;;;16.65;5.45;;;;;;;16.26;71.27;100196.13;5121758;28;20111;-84
2023/05/18 03:37:16;;;;;;;50.53;13.73;;;;;;;16.27;71.04;100201.38;5121732;28;20042;-83
2023/05/18 03:39:42;;;;;;;13.00;4.88;;;;;;;16.49;71.28;100228.81;5131105;28;20055;-84
2023/05/18 03:42:11;;;;;;;20.38;4.30;;;;;;;16.34;71.51;100205.09;5122530;28;20058;-84
2023/05/18 03:44:37;;;;;;;5.68;3.00;;;;;;;16.45;71.27;100216.63;5116151;28;20032;-84
2023/05/18 03:47:02;;;;;;;20.67;2.97;;;;;;;16.63;71.48;100241.75;5116841;28;20204;-86
2023/05/18 03:49:31;;;;;;;29.17;6.38;;;;;;;16.45;71.21;100205.78;5116533;28;20122;-85
2023/05/18 03:51:56;;;;;;;19.08;4.20;;;;;;;16.58;71.52;100225.09;5115134;28;20047;-90
2023/05/18 03:54:22;;;;;;;17.65;4.03;;;;;;;16.45;71.42;100208.50;5114470;28;20028;-84
2023/05/18 03:56:48;;;;;;;20.25;4.57;;;;;;;16.71;71.30;100233.56;5114866;28;20399;-86
2023/05/18 03:59:14;;;;;;;18.77;5.72;;;;;;;16.63;70.65;100218.16;5114602;28;20058;-84
2023/05/18 04:01:41;;;;;;;16.20;5.28;;;;;;;16.82;71.03;100263.06;5114355;28;20031;-84
2023/05/18 04:04:07;;;;;;;30.02;5.53;;;;;;;16.61;71.60;100224.75;5113786;28;20054;-85
2023/05/18 04:06:34;;;;;;;25.13;4.95;;;;;;;16.65;72.02;100250.56;5114058;28;20119;-84
2023/05/18 04:09:03;;;;;;;12.80;3.13;;;;;;;16.64;71.69;100227.13;5095823;28;20069;-84
2023/05/18 04:11:30;;;;;;;21.15;5.38;;;;;;;16.74;71.74;100238.66;5112664;28;20134;-84
2023/05/18 04:13:56;;;;;;;15.13;5.00;;;;;;;16.73;71.78;100247.81;5114665;28;20032;-83
2023/05/18 04:16:23;;;;;;;18.10;4.65;;;;;;;16.74;72.03;100244.09;5114451;28;20122;-83
2023/05/18 04:18:48;;;;;;;10.52;3.05;;;;;;;16.81;71.94;100239.66;5114528;28;20036;-86
2023/05/18 04:21:14;;;;;;;36.67;5.60;;;;;;;16.74;71.72;100227.78;5113995;28;20050;-83
2023/05/18 04:23:40;;;;;;;27.35;6.18;;;;;;;16.81;71.90;100243.22;5114128;28;20123;-86
2023/05/18 04:26:07;;;;;;;17.85;5.18;;;;;;;16.92;72.07;100268.31;5112878;28;20079;-83
2023/05/18 04:28:33;;;;;;;24.35;5.18;;;;;;;16.91;72.08;100256.59;5114790;28;20032;-85
2023/05/18 04:31:00;;;;;;;18.83;3.78;;;;;;;16.95;72.01;100274.25;5108488;28;20406;-81
2023/05/18 04:33:26;;;;;;;15.05;4.72;;;;;;;16.85;72.41;100262.72;5115989;28;20054;-82
2023/05/18 04:35:57;;;;;;;28.52;5.35;;;;;;;16.99;72.34;100275.59;5105164;28;20051;-87
2023/05/18 04:38:23;;;;;;;12.10;4.30;;;;;;;17.06;72.44;100276.59;5125107;27;20048;-82
2023/05/18 04:40:49;;;;;;;20.85;5.15;;;;;;;17.08;72.81;100260.09;5110302;28;20039;-82
2023/05/18 04:43:19;;;;;;;54.25;7.93;;;;;;;17.13;72.35;100253.13;5110524;28;20042;-81
2023/05/18 04:45:45;;;;;;;51.05;6.78;;;;;;;17.39;71.79;100278.16;5098629;28;20086;-83
2023/05/18 04:48:13;;;;;;;32.40;5.63;;;;;;;17.43;70.88;100276.75;5088197;28;20036;-81
2023/05/18 04:50:38;;;;;;;18.00;4.28;;;;;;;17.54;69.34;100269.25;5089403;28;20058;-80
2023/05/18 04:53:06;;;;;;;22.65;3.97;;;;;;;17.49;68.69;100247.19;5090006;28;20056;-79
2023/05/18 04:55:32;;;;;;;28.80;5.75;;;;;;;17.41;68.67;100227.16;5091493;28;20070;-89
2023/05/18 04:58:00;;;;;;;20.08;4.35;;;;;;;17.69;68.35;100264.75;5093531;28;20064;-82
2023/05/18 05:00:27;;;;;;;19.33;3.75;;;;;;;17.81;67.45;100275.06;5098114;28;20026;-84
2023/05/18 05:02:54;;;;;;;61.70;6.63;;;;;;;17.87;67.56;100281.66;5101381;28;20031;-81
2023/05/18 05:05:21;;;;;;;35.33;6.25;;;;;;;17.93;67.34;100275.50;5097677;28;20036;-84
2023/05/18 05:07:48;;;;;;;33.38;4.22;;;;;;;17.91;67.01;100272.13;5097913;28;20031;-83
2023/05/18 05:10:14;;;;;;;37.85;5.82;;;;;;;17.98;66.97;100275.78;5098116;28;20085;-82
2023/05/18 05:12:40;;;;;;;34.55;5.82;;;;;;;17.90;66.64;100264.97;5091276;28;20040;-82
2023/05/18 05:15:06;;;;;;;47.95;5.85;;;;;;;17.99;66.94;100269.31;5089081;28;20089;-83
2023/05/18 05:17:32;;;;;;;39.75;6.00;;;;;;;18.00;66.21;100259.28;5089120;28;20093;-80
2023/05/18 05:19:57;;;;;;;20.48;4.50;;;;;;;18.14;65.39;100277.53;5090043;28;20040;-81
2023/05/18 05:22:22;;;;;;;18.33;3.75;;;;;;;18.05;64.81;100270.47;5090421;28;20036;-82
2023/05/18 05:24:48;;;;;;;25.45;3.60;;;;;;;17.88;64.82;100264.31;5091437;28;20048;-80
2023/05/18 05:27:13;;;;;;;20.65;3.65;;;;;;;18.09;65.09;100297.16;5092512;28;20040;-78
2023/05/18 05:29:39;;;;;;;24.02;4.13;;;;;;;18.01;65.08;100269.97;5103806;28;20036;-92
2023/05/18 05:32:05;;;;;;;20.38;3.78;;;;;;;18.06;65.46;100264.00;5125767;28;20020;-83
2023/05/18 05:34:30;;;;;;;24.08;5.15;;;;;;;18.05;65.89;100279.47;5103751;28;20463;-87
2023/05/18 05:36:56;;;;;;;20.77;3.80;;;;;;;18.03;66.18;100276.09;5072685;28;20097;-86
2023/05/18 05:39:21;;;;;;;10.57;3.63;;;;;;;18.06;66.16;100275.75;5091541;28;20475;-81
2023/05/18 05:41:47;;;;;;;15.65;3.58;;;;;;;17.91;66.12;100267.53;5088528;28;20036;-83
2023/05/18 05:44:12;;;;;;;39.63;4.85;;;;;;;18.00;66.30;100281.91;5090706;28;20467;-79
2023/05/18 05:46:38;;;;;;;28.25;3.60;;;;;;;18.00;66.21;100286.50;5090382;28;20043;-81
2023/05/18 05:49:04;;;;;;;19.40;4.00;;;;;;;18.01;66.78;100309.97;5094219;28;20436;-83
2023/05/18 05:51:29;;;;;;;16.48;3.90;;;;;;;18.02;66.78;100317.94;5096745;28;20035;-89
2023/05/18 05:53:55;;;;;;;33.15;4.65;;;;;;;17.68;67.40;100277.50;5104935;28;20106;-86
2023/05/18 05:56:21;;;;;;;24.17;3.60;;;;;;;17.91;67.38;100326.53;5097967;28;20460;-85
2023/05/18 05:58:47;;;;;;;23.45;4.78;;;;;;;17.80;67.10;100314.16;5091583;28;20094;-82
2023/05/18 06:01:12;;;;;;;24.13;5.80;;;;;;;17.91;67.31;100334.69;5096274;28;20453;-82
2023/05/18 06:03:38;;;;;;;24.13;3.65;;;;;;;17.96;67.24;100324.09;5096040;28;20045;-81
2023/05/18 06:06:03;;;;;;;14.35;3.50;;;;;;;17.98;67.28;100326.66;5088330;28;20052;-81
2023/05/18 06:08:29;;;;;;;31.00;4.60;;;;;;;17.96;67.43;100307.78;5088914;28;20064;-84
2023/05/18 06:10:55;;;;;;;18.42;3.67;;;;;;;18.08;67.33;100319.09;5089050;28;20074;-86
2023/05/18 06:13:21;;;;;;;13.77;4.35;;;;;;;18.03;66.92;100314.22;5090966;28;20511;-89
2023/05/18 06:15:46;;;;;;;22.23;6.60;;;;;;;18.06;66.79;100308.41;5072800;28;20127;-82
2023/05/18 06:18:12;;;;;;;27.48;7.43;;;;;;;18.17;67.19;100315.28;5091120;28;20039;-79
2023/05/18 06:20:38;;;;;;;26.90;8.88;;;;;;;18.12;67.48;100296.78;5092289;28;20024;-86
2023/05/18 06:23:03;;;;;;;41.05;9.98;;;;;;;18.12;67.99;100258.69;5094286;28;20043;-88
2023/05/18 06:25:29;;;;;;;42.40;11.07;;;;;;;18.29;67.94;100287.47;5098356;27;20056;-90
2023/05/18 06:27:54;;;;;;;25.35;7.90;;;;;;;18.34;67.30;100282.34;5090347;28;20032;-82
2023/05/18 06:30:20;;;;;;;42.22;12.00;;;;;;;18.43;66.99;100299.44;5102222;28;20028;-85
2023/05/18 06:32:45;;;;;;;24.65;5.40;;;;;;;18.52;66.75;100317.44;5090988;28;20063;-83
2023/05/18 06:35:11;;;;;;;14.52;4.82;;;;;;;18.39;66.08;100304.41;5092608;28;20069;-86
2023/05/18 06:37:38;;;;;;;15.88;6.30;;;;;;;18.47;66.39;100323.38;5096675;28;20036;-87
2023/05/18 06:40:06;;;;;;;26.67;7.63;;;;;;;18.50;66.23;100321.38;5091590;28;20156;-83
2023/05/18 06:42:32;;;;;;;27.50;9.32;;;;;;;18.58;66.57;100316.69;5053466;28;20043;-85
2023/05/18 06:44:57;;;;;;;35.00;10.30;;;;;;;18.57;66.04;100300.53;5089506;28;20111;-81
2023/05/18 06:47:23;;;;;;;44.35;11.40;;;;;;;18.71;66.08;100311.47;5088929;28;20039;-83
2023/05/18 06:49:48;;;;;;;39.85;11.15;;;;;;;18.80;65.81;100328.59;5090755;28;20105;-82
2023/05/18 06:52:14;;;;;;;35.95;13.20;;;;;;;18.86;65.27;100316.94;5090772;28;20131;-82
2023/05/18 06:54:39;;;;;;;32.38;10.32;;;;;;;18.90;64.86;100319.09;5089946;28;20493;-82
2023/05/18 06:57:05;;;;;;;25.15;7.30;;;;;;;19.04;64.54;100317.44;5091114;28;20089;-82
2023/05/18 06:59:31;;;;;;;28.45;6.47;;;;;;;18.98;65.19;100337.25;5097518;28;20408;-82
2023/05/18 07:01:56;;;;;;;29.00;6.40;;;;;;;19.09;65.04;100339.53;5100580;28;20115;-82
2023/05/18 07:04:22;;;;;;;21.85;4.43;;;;;;;19.26;64.61;100362.00;5098811;28;20036;-83
2023/05/18 07:06:47;;;;;;;30.67;6.65;;;;;;;19.23;64.56;100341.44;5092399;28;20156;-81
2023/05/18 07:09:13;;;;;;;26.15;5.10;;;;;;;19.37;64.36;100359.66;5088326;28;20050;-83
2023/05/18 07:11:39;;;;;;;36.08;7.40;;;;;;;19.34;64.41;100348.28;5091303;28;20533;-83
2023/05/18 07:14:05;;;;;;;24.80;8.18;;;;;;;19.35;64.58;100366.34;5092942;28;20044;-81
2023/05/18 07:16:31;;;;;;;25.10;6.60;;;;;;;19.27;64.73;100359.09;5093839;28;20082;-82
2023/05/18 07:18:57;;;;;;;31.33;9.50;;;;;;;19.32;65.03;100373.03;5093960;28;20036;-82
2023/05/18 07:21:23;;;;;;;18.50;6.07;;;;;;;19.31;65.25;100387.69;5094158;28;20036;-83
2023/05/18 07:23:49;;;;;;;12.93;5.18;;;;;;;19.24;65.95;100383.16;5101622;28;20135;-83
2023/05/18 07:26:14;;;;;;;18.90;6.25;;;;;;;19.21;66.32;100387.09;5097909;28;20036;-84
2023/05/18 07:28:40;;;;;;;19.02;5.93;;;;;;;19.05;67.75;100364.63;5092068;28;20040;-83
2023/05/18 07:31:06;;;;;;;18.83;9.13;;;;;;;19.00;67.96;100357.00;5091902;28;20036;-83
2023/05/18 07:33:31;;;;;;;18.90;5.13;;;;;;;18.90;68.59;100345.50;5092723;28;20069;-83
2023/05/18 07:35:57;;;;;;;19.15;7.75;;;;;;;19.18;68.70;100398.38;5092959;28;20104;-81
2023/05/18 07:38:22;;;;;;;16.50;5.80;;;;;;;19.13;69.17;100378.16;5092874;28;20067;-82
2023/05/18 07:40:48;;;;;;;17.52;6.75;;;;;;;19.04;69.86;100382.84;5093124;28;20046;-82
2023/05/18 07:43:13;;;;;;;19.27;6.68;;;;;;;18.95;70.75;100376.66;5094590;28;20491;-82
2023/05/18 07:45:38;;;;;;;28.17;13.20;;;;;;;18.84;71.68;100346.25;5094314;28;20032;-81
2023/05/18 07:48:04;;;;;;;45.17;19.95;;;;;;;18.95;72.18;100360.28;5093652;28;20491;-82
2023/05/18 07:50:29;;;;;;;22.52;9.57;;;;;;;18.92;73.66;100378.88;5099497;28;20043;-82
2023/05/18 07:52:55;;;;;;;23.50;8.77;;;;;;;18.87;73.94;100395.78;5097097;28;20159;-82
2023/05/18 07:55:20;;;;;;;25.13;7.85;;;;;;;18.75;74.46;100374.59;5092543;28;20051;-83
2023/05/18 07:57:46;;;;;;;19.95;7.95;;;;;;;18.86;74.80;100390.53;5092058;28;20063;-82
2023/05/18 08:00:12;;;;;;;27.17;9.35;;;;;;;18.85;75.21;100378.78;5093893;28;20098;-84
2023/05/18 08:02:38;;;;;;;18.00;7.80;;;;;;;19.04;74.83;100401.94;5092020;28;20132;-83
2023/05/18 08:05:04;;;;;;;16.27;7.28;;;;;;;19.14;74.53;100385.31;5091614;28;20510;-84
2023/05/18 08:07:31;;;;;;;16.95;7.68;;;;;;;19.21;74.61;100392.56;5093247;28;20042;-82
2023/05/18 08:09:57;;;;;;;16.55;5.88;;;;;;;19.06;73.77;100393.56;5093434;28;20039;-81
2023/05/18 08:12:23;;;;;;;26.48;7.15;;;;;;;19.06;73.88;100360.84;5093693;28;20032;-80
2023/05/18 08:14:49;;;;;;;26.77;7.45;;;;;;;19.27;73.35;100386.34;5096828;28;20372;-81
2023/05/18 08:17:14;;;;;;;16.98;7.85;;;;;;;19.31;73.69;100404.06;5093315;28;20104;-82
2023/05/18 08:19:40;;;;;;;17.98;6.55;;;;;;;19.22;74.12;100402.44;5096830;28;20042;-80
2023/05/18 08:22:06;;;;;;;13.50;5.82;;;;;;;19.25;73.51;100399.34;5098467;28;20028;-81
2023/05/18 08:24:32;;;;;;;13.57;6.53;;;;;;;19.22;73.37;100388.81;5095299;28;20036;-83
2023/05/18 08:26:58;;;;;;;31.05;8.15;;;;;;;19.21;73.17;100381.66;5092115;28;20028;-82
2023/05/18 08:29:23;;;;;;;18.90;9.07;;;;;;;19.33;72.70;100403.84;5091415;28;20093;-82
2023/05/18 08:31:50;;;;;;;24.25;7.03;;;;;;;19.38;72.84;100410.47;5090973;28;20034;-81
2023/05/18 08:34:15;;;;;;;18.33;6.50;;;;;;;19.37;71.90;100416.94;5091073;28;20035;-83
2023/05/18 08:36:44;;;;;;;14.82;6.40;;;;;;;19.38;71.96;100405.00;5091278;28;20035;-84
2023/05/18 08:39:10;;;;;;;15.70;7.32;;;;;;;19.45;72.46;100421.47;5090289;28;20477;-82
2023/05/18 08:41:42;;;;;;;19.52;6.63;;;;;;;19.42;71.35;100428.16;5091076;28;20031;-86
2023/05/18 08:44:17;;;;;;;17.58;7.50;;;;;;;19.38;70.98;100415.91;5090544;28;20024;-82
2023/05/18 08:46:48;;;;;;;14.27;5.18;;;;;;;19.49;70.54;100445.47;5090489;28;20440;-84
2023/05/18 08:49:16;;;;;;;24.27;6.88;;;;;;;19.45;70.75;100435.97;5091907;28;20073;-83
2023/05/18 08:51:46;;;;;;;35.40;13.85;;;;;;;19.43;70.48;100410.78;5090631;28;20539;-81
2023/05/18 08:54:18;;;;;;;24.90;8.82;;;;;;;19.47;70.38;100390.28;5090428;28;20392;-82
2023/05/18 08:56:45;;;;;;;26.50;7.75;;;;;;;19.44;71.13;100392.53;5090349;28;20464;-82
2023/05/18 08:59:13;;;;;;;21.23;10.38;;;;;;;19.54;72.93;100414.91;5090608;28;20032;-81
2023/05/18 09:01:39;;;;;;;27.70;10.48;;;;;;;19.53;71.77;100405.88;5090972;28;20044;-81
2023/05/18 09:04:05;;;;;;;19.27;7.75;;;;;;;19.63;71.29;100396.56;5090845;28;20139;-83
2023/05/18 09:06:34;;;;;;;22.98;9.38;;;;;;;19.78;70.94;100411.91;5090747;28;20032;-82
2023/05/18 09:09:03;;;;;;;22.05;7.90;;;;;;;19.85;71.35;100395.59;5092800;28;20039;-82
2023/05/18 09:11:31;;;;;;;19.10;7.25;;;;;;;19.76;71.76;100407.66;5092246;28;20036;-83
2023/05/18 09:13:58;;;;;;;22.92;9.60;;;;;;;19.69;73.62;100406.72;5091507;28;20200;-82
2023/05/18 09:16:23;;;;;;;23.02;8.70;;;;;;;19.66;74.80;100410.69;5102931;28;20039;-83
2023/05/18 09:18:49;;;;;;;19.50;8.10;;;;;;;19.61;74.77;100412.25;5121400;28;20070;-86
2023/05/18 09:21:15;;;;;;;30.88;10.32;;;;;;;19.61;75.13;100404.09;5116052;28;20355;-81
2023/05/18 09:23:41;;;;;;;20.00;8.05;;;;;;;19.65;75.62;100416.31;5108953;28;20038;-78
2023/05/18 09:26:10;;;;;;;19.92;9.32;;;;;;;19.68;75.01;100413.22;5109106;28;20035;-84
2023/05/18 09:28:37;;;;;;;27.67;9.93;;;;;;;19.71;74.92;100418.28;5109066;28;20027;-82
2023/05/18 09:31:03;;;;;;;14.70;8.98;;;;;;;19.75;75.12;100411.44;5109132;28;20031;-81
2023/05/18 09:33:34;;;;;;;23.98;9.77;;;;;;;19.69;75.86;100413.03;5108127;28;20047;-82
2023/05/18 09:35:59;;;;;;;30.48;11.73;;;;;;;19.72;76.42;100406.34;5108502;28;20151;-80
2023/05/18 09:38:26;;;;;;;28.30;12.93;;;;;;;19.68;76.96;100388.66;5108794;28;20122;-79
2023/05/18 09:40:52;;;;;;;27.13;12.68;;;;;;;19.52;77.13;100371.44;5108478;28;20410;-82
2023/05/18 09:43:19;;;;;;;31.33;12.50;;;;;;;19.68;77.62;100405.03;5108795;28;20519;-82
2023/05/18 09:45:47;;;;;;;31.13;11.85;;;;;;;19.69;77.70;100409.47;5108860;28;20453;-78
2023/05/18 09:48:13;;;;;;;37.15;14.25;;;;;;;19.78;77.99;100411.06;5109814;28;20519;-84
2023/05/18 09:50:39;;;;;;;27.08;14.63;;;;;;;19.83;78.24;100414.06;5109293;28;20038;-81
2023/05/18 09:53:08;;;;;;;22.80;11.07;;;;;;;19.67;78.75;100408.78;5109565;28;21201;-81
2023/05/18 09:55:44;;;;;;;16.55;9.63;;;;;;;19.51;78.33;100413.41;5109632;28;20392;-80
2023/05/18 09:58:09;;;;;;;18.65;9.07;;;;;;;19.42;79.76;100411.78;5113880;28;20061;-81
2023/05/18 10:00:42;;;;;;;17.20;9.07;;;;;;;19.36;79.72;100417.97;5114142;28;20036;-80
2023/05/18 10:03:22;;;;;;;17.70;9.02;;;;;;;19.17;80.00;100385.81;5112823;28;20035;-81
2023/05/18 10:05:49;;;;;;;20.15;9.45;;;;;;;19.13;80.55;100394.53;5112889;28;20019;-79
2023/05/18 10:08:15;;;;;;;15.82;8.50;;;;;;;19.11;81.00;100408.31;5112228;28;20035;-82
2023/05/18 10:10:45;;;;;;;16.58;8.75;;;;;;;19.13;81.08;100408.16;5111632;28;20046;-83
2023/05/18 10:13:19;;;;;;;22.73;10.02;;;;;;;19.15;81.21;100415.13;5122539;28;20088;-81
2023/05/18 10:15:50;;;;;;;19.52;9.57;;;;;;;18.99;81.47;100388.00;5126951;28;20039;-79
2023/05/18 10:18:34;;;;;;;25.45;10.40;;;;;;;18.86;82.09;100394.09;5113564;28;20027;-80
2023/05/18 10:21:01;;;;;;;23.30;10.20;;;;;;;18.90;82.95;100405.47;5114401;28;20073;-82
2023/05/18 10:23:30;;;;;;;19.85;10.50;;;;;;;18.75;83.08;100378.16;5095714;28;20054;-79
2023/05/18 10:25:56;;;;;;;19.52;10.25;;;;;;;18.75;83.23;100388.22;5111420;28;20073;-80
2023/05/18 10:28:27;;;;;;;25.27;9.93;;;;;;;18.88;83.30;100386.59;5092434;28;20070;-80
2023/05/18 10:30:54;;;;;;;21.25;10.75;;;;;;;18.93;83.53;100383.28;5110790;28;20039;-82
2023/05/18 10:33:24;;;;;;;28.98;14.43;;;;;;;19.02;83.51;100383.03;5111241;28;20042;-78
2023/05/18 10:35:50;;;;;;;19.65;9.50;;;;;;;19.24;83.59;100400.38;5111540;28;20059;-80
2023/05/18 10:38:23;;;;;;;24.77;9.52;;;;;;;19.13;82.64;100362.66;5112751;28;20032;-83
2023/05/18 10:40:52;;;;;;;30.05;10.98;;;;;;;19.13;82.21;100380.91;5110890;28;20490;-81
2023/05/18 10:43:20;;;;;;;13.57;9.45;;;;;;;19.37;82.32;100399.72;5110672;28;20038;-82
2023/05/18 10:45:51;;;;;;;24.92;9.93;;;;;;;19.37;81.13;100397.84;5111536;28;20483;-83
2023/05/18 10:48:18;;;;;;;26.85;10.27;;;;;;;19.41;80.39;100382.00;5113841;28;20036;-80
2023/05/18 10:50:47;;;;;;;17.88;8.85;;;;;;;19.43;79.55;100394.41;5114320;28;20085;-83
2023/05/18 10:53:16;;;;;;;28.45;10.52;;;;;;;19.42;79.86;100398.16;5113986;28;20046;-81
2023/05/18 10:55:42;;;;;;;20.45;9.90;;;;;;;19.41;79.56;100396.47;5113592;28;20035;-80
2023/05/18 10:58:14;;;;;;;21.52;9.10;;;;;;;19.47;79.62;100390.28;5114142;28;20035;-82
2023/05/18 11:00:43;;;;;;;22.80;12.38;;;;;;;19.61;79.30;100393.16;5114849;28;20517;-81
2023/05/18 11:03:12;;;;;;;29.73;12.52;;;;;;;19.75;79.46;100395.91;5118590;28;20040;-80
2023/05/18 11:05:39;;;;;;;25.67;10.38;;;;;;;19.91;78.72;100405.75;5115904;28;20036;-84
2023/05/18 11:08:04;;;;;;;15.48;9.13;;;;;;;19.85;77.87;100398.31;5116955;28;20038;-80
2023/05/18 11:10:46;;;;;;;20.88;10.90;;;;;;;19.92;78.03;100399.25;5119986;28;20087;-80
2023/05/18 11:13:13;;;;;;;15.82;10.23;;;;;;;20.01;77.84;100406.31;5116391;28;20134;-81
2023/05/18 11:15:54;;;;;;;27.00;13.20;;;;;;;20.12;77.79;100419.47;5076945;28;20035;-84
2023/05/18 11:18:25;;;;;;;35.97;15.02;;;;;;;20.13;77.08;100380.19;5095018;28;20065;-83
2023/05/18 11:20:51;;;;;;;39.67;18.13;;;;;;;20.34;76.88;100385.72;5112952;28;20028;-81
2023/05/18 11:23:19;;;;;;;49.30;19.58;;;;;;;20.59;76.37;100395.25;5113343;28;20258;-83
2023/05/18 11:25:48;;;;;;;40.45;20.02;;;;;;;20.72;76.05;100399.13;5107855;28;20071;-80
2023/05/18 11:28:14;;;;;;;46.90;24.17;;;;;;;20.62;75.41;100389.38;5108063;28;20042;-79
2023/05/18 11:30:39;;;;;;;48.35;26.08;;;;;;;20.71;75.61;100394.69;5111506;28;20395;-81
2023/05/18 11:33:14;;;;;;;52.80;26.23;;;;;;;20.93;75.39;100401.84;5111126;28;20042;-80
2023/05/18 11:36:01;;;;;;;49.65;28.17;;;;;;;21.06;74.40;100397.34;5111129;28;20031;-81
2023/05/18 11:39:03;;;;;;;46.75;25.58;;;;;;;21.06;73.95;100402.81;5110890;28;20028;-77
2023/05/18 11:41:29;;;;;;;51.45;28.30;;;;;;;21.15;73.17;100406.28;5111396;28;20500;-83
2023/05/18 11:44:13;;;;;;;37.92;24.17;;;;;;;21.24;72.62;100399.63;5094913;28;20132;-81
2023/05/18 11:47:04;;;;;;;51.97;23.92;;;;;;;21.19;72.38;100406.75;5111374;28;20035;-82
2023/05/18 11:49:41;;;;;;;43.58;23.17;;;;;;;21.30;72.01;100404.28;5027323;28;20048;-81
2023/05/18 11:52:16;;;;;;;37.80;21.05;;;;;;;21.35;72.25;100407.25;5027674;28;20088;-82
2023/05/18 11:54:49;;;;;;;39.53;22.40;;;;;;;21.47;71.61;100402.94;5027795;28;20037;-82
2023/05/18 11:57:16;;;;;;;56.22;24.52;;;;;;;21.56;71.28;100401.72;5027780;28;20091;-80
2023/05/18 11:59:47;;;;;;;46.38;21.08;;;;;;;21.45;70.08;100402.28;5030018;28;20034;-82
2023/05/18 12:02:19;;;;;;;48.80;21.00;;;;;;;21.34;70.03;100405.59;5029578;28;20125;-82
2023/05/18 12:04:50;;;;;;;56.13;21.52;;;;;;;21.10;70.49;100375.94;5033024;28;20044;-80
2023/05/18 12:07:20;;;;;;;55.08;21.38;;;;;;;21.06;70.83;100397.34;5016628;28;20463;-81
2023/05/18 12:09:47;;;;;;;34.97;15.88;;;;;;;20.57;71.69;100396.47;5032210;28;20056;-78
2023/05/18 12:12:18;;;;;;;27.67;14.98;;;;;;;20.22;73.65;100392.69;5028974;28;20412;-81
2023/05/18 12:14:52;;;;;;;55.23;12.77;;;;;;;20.39;74.52;100399.66;5027855;28;20044;-80
2023/05/18 12:17:17;;;;;;;39.55;12.38;;;;;;;19.87;74.78;100377.16;5011188;28;20041;-84
2023/05/18 12:19:45;;;;;;;44.78;11.88;;;;;;;19.77;75.53;100390.25;5032132;28;20465;-82
2023/05/18 12:22:11;;;;;;;22.13;10.13;;;;;;;19.71;76.24;100391.84;5029959;28;20037;-79
2023/05/18 12:24:41;;;;;;;30.58;10.65;;;;;;;19.76;76.73;100391.28;5028556;28;20056;-81
2023/05/18 12:27:10;;;;;;;23.75;10.07;;;;;;;19.66;76.17;100391.59;5091710;28;20490;-82
2023/05/18 12:29:41;;;;;;;34.97;9.43;;;;;;;19.87;76.04;100399.00;5111081;28;20035;-80
2023/05/18 12:32:11;;;;;;;53.30;16.75;;;;;;;19.88;76.36;100376.09;5111553;28;20876;-80
2023/05/18 12:34:38;;;;;;;35.22;15.02;;;;;;;20.20;75.94;100397.53;5111956;28;20118;-87
2023/05/18 12:37:06;;;;;;;30.50;11.00;;;;;;;19.94;75.18;100384.38;5112949;28;20023;-81
2023/05/18 12:39:32;;;;;;;36.65;9.85;;;;;;;19.99;75.36;100394.75;5112399;28;20080;-82
2023/05/18 12:42:12;;;;;;;22.52;9.15;;;;;;;20.03;75.04;100402.34;5109954;28;20443;-79
2023/05/18 12:44:37;;;;;;;40.70;9.75;;;;;;;19.83;73.88;100387.59;5110332;28;20042;-83
2023/05/18 12:47:03;;;;;;;50.22;11.20;;;;;;;19.77;74.32;100384.78;5091991;28;20039;-84
2023/05/18 12:49:34;;;;;;;56.30;11.48;;;;;;;19.71;73.87;100385.56;5110585;28;20046;-80
2023/05/18 12:52:07;;;;;;;90.72;14.73;;;;;;;19.89;73.68;100413.28;5110837;28;20047;-82
2023/05/18 12:54:33;;;;;;;67.43;12.48;;;;;;;20.12;73.27;100403.06;5112053;28;20024;-82
2023/05/18 12:57:04;;;;;;;58.42;13.55;;;;;;;20.40;72.33;100406.78;5113427;28;20040;-81
2023/05/18 12:59:30;;;;;;;84.22;13.43;;;;;;;20.56;71.61;100400.25;5114070;28;20517;-80
2023/05/18 13:01:57;;;;;;;62.10;10.65;;;;;;;20.61;70.65;100409.53;5124805;28;20035;-78
2023/05/18 13:04:33;;;;;;;48.67;10.15;;;;;;;20.61;70.11;100400.50;5118720;28;20043;-77
2023/05/18 13:06:58;;;;;;;28.17;7.95;;;;;;;20.54;68.67;100395.00;5109912;28;20039;-79
2023/05/18 13:09:24;;;;;;;41.38;11.18;;;;;;;20.52;68.55;100405.25;5109021;28;20453;-80
2023/05/18 13:11:50;;;;;;;29.48;8.55;;;;;;;20.56;66.68;100400.25;5110651;28;20123;-82
2023/05/18 13:14:20;;;;;;;66.05;11.02;;;;;;;20.45;67.34;100387.97;5111650;28;20043;-81
2023/05/18 13:16:51;;;;;;;86.32;12.65;;;;;;;20.81;67.38;100392.50;5110279;28;20035;-79
2023/05/18 13:19:20;;;;;;;44.42;8.82;;;;;;;20.67;65.16;100386.06;5111243;28;20035;-84